createdAt,value
2019-04-14T00:03:50.050Z,3
2019-04-14T00:09:21.220Z,3
2019-04-14T00:14:53.393Z,2.9
2019-04-14T00:20:24.983Z,2.7
2019-04-14T00:25:56.465Z,2.7
2019-04-14T00:31:28.534Z,2.6
2019-04-14T00:36:59.529Z,2.6
2019-04-14T00:42:31.978Z,2.6
2019-04-14T00:48:07.837Z,2.6
2019-04-14T00:53:34.440Z,2.5
2019-04-14T00:59:07.090Z,2.6
2019-04-14T01:04:38.271Z,2.5
2019-04-14T01:10:10.277Z,2.4
2019-04-14T01:15:50.951Z,2.5
2019-04-14T01:21:11.084Z,2.3
2019-04-14T01:26:42.095Z,2.4
2019-04-14T01:32:13.265Z,2.4
2019-04-14T01:37:44.208Z,2.3
2019-04-14T01:43:16.697Z,1.9
2019-04-14T01:48:47.589Z,1.9
2019-04-14T01:54:19.305Z,2
2019-04-14T01:59:50.982Z,2
2019-04-14T02:05:23.519Z,2
2019-04-14T02:10:54.449Z,2
2019-04-14T02:16:34.682Z,1.9
2019-04-14T02:21:58.424Z,1.6
2019-04-14T02:27:29.698Z,1.2
2019-04-14T02:33:31.689Z,0.9
2019-04-14T02:38:47.209Z,1.1
2019-04-14T02:44:30.034Z,0.7
2019-04-14T02:50:04.401Z,0.6
2019-04-14T02:55:29.426Z,0.9
2019-04-14T03:01:14.274Z,0.5
2019-04-14T03:06:32.882Z,0.2
2019-04-14T03:17:36.591Z,0.5
2019-04-14T03:23:16.881Z,0.6
2019-04-14T03:45:14.009Z,0.7
2019-04-14T03:50:44.123Z,0.8
2019-04-14T03:55:54.078Z,0.5
2019-04-14T04:01:19.324Z,0.6
2019-04-14T04:06:49.458Z,0.7
2019-04-14T04:12:20.355Z,0.7
2019-04-14T04:17:51.595Z,0.3
2019-04-14T04:23:21.190Z,-0.2
2019-04-14T04:28:51.856Z,-0.3
2019-04-14T04:34:22.700Z,0.1
2019-04-14T04:39:53.901Z,0.3
2019-04-14T04:45:23.529Z,0.6
2019-04-14T04:50:54.193Z,0.7
2019-04-14T04:56:25.428Z,0.6
2019-04-14T05:01:55.878Z,0.7
2019-04-14T05:07:25.655Z,0.6
2019-04-14T05:12:56.521Z,0.8
2019-04-14T05:18:26.910Z,0.8
2019-04-14T05:23:58.128Z,0.6
2019-04-14T05:29:28.298Z,0.6
2019-04-14T05:34:59.151Z,0.8
2019-04-14T05:40:30.028Z,1
2019-04-14T05:46:01.291Z,1
2019-04-14T05:51:32.511Z,1
2019-04-14T05:57:02.367Z,1.3
2019-04-14T06:02:33.567Z,1.7
2019-04-14T06:08:03.970Z,1.6
2019-04-14T06:13:34.956Z,1.5
2019-04-14T06:19:05.952Z,1.5
2019-04-14T06:24:37.706Z,1.5
2019-04-14T06:30:07.798Z,1.5
2019-04-14T06:35:38.802Z,1.7
2019-04-14T06:41:09.874Z,2.1
2019-04-14T06:46:41.086Z,2.2
2019-04-14T06:52:12.330Z,2.1
2019-04-14T06:57:43.545Z,2.4
2019-04-14T07:03:14.918Z,2.5
2019-04-14T07:08:46.251Z,2.7
2019-04-14T07:14:17.786Z,2.8
2019-04-14T07:20:01.210Z,2.8
2019-04-14T07:25:21.993Z,2.9
2019-04-14T07:30:54.336Z,2.8
2019-04-14T07:36:26.766Z,2.9
2019-04-14T07:41:59.168Z,3.7
2019-04-14T07:47:31.731Z,3.8
2019-04-14T07:53:04.344Z,3.7
2019-04-14T07:58:36.979Z,3.6
2019-04-14T08:04:09.603Z,4.1
2019-04-14T08:09:42.317Z,4.1
2019-04-14T08:15:16.684Z,4.4
2019-04-14T08:20:47.992Z,4.6
2019-04-14T08:26:20.476Z,4.9
2019-04-14T08:31:53.333Z,4.4
2019-04-14T08:37:30.405Z,4.1
2019-04-14T08:43:02.902Z,5
2019-04-14T08:48:35.626Z,4.4
2019-04-14T08:54:08.238Z,4.3
2019-04-14T08:59:40.523Z,4
2019-04-14T09:05:12.817Z,4.2
2019-04-14T09:10:45.144Z,4.2
2019-04-14T09:16:17.357Z,4.1
2019-04-14T09:21:49.581Z,4.2
2019-04-14T09:27:21.814Z,4
2019-04-14T09:32:54.105Z,4.1
2019-04-14T09:38:27.526Z,4.3
2019-04-14T09:43:58.800Z,4.6
2019-04-14T09:49:31.287Z,4.9
2019-04-14T09:55:04.028Z,5.4
2019-04-14T10:00:36.919Z,5.4
2019-04-14T10:06:09.715Z,5.6
2019-04-14T10:11:48.244Z,5.5
2019-04-14T10:17:15.254Z,5.9
2019-04-14T10:22:47.293Z,6.1
2019-04-14T10:28:20.301Z,6.3
2019-04-14T10:33:53.536Z,6.5
2019-04-14T10:39:26.474Z,5.8
2019-04-14T10:44:59.423Z,5.6
2019-04-14T10:50:32.059Z,5.7
2019-04-14T10:56:04.718Z,5.4
2019-04-14T11:01:37.356Z,5.2
2019-04-14T11:07:09.893Z,5.4
2019-04-14T11:12:42.497Z,5.3
2019-04-14T11:18:14.981Z,5.5
2019-04-14T11:23:47.523Z,4.9
2019-04-14T11:29:19.969Z,4.8
2019-04-14T11:34:52.298Z,4.7
2019-04-14T11:40:24.745Z,5.3
2019-04-14T11:45:56.964Z,5.4
2019-04-14T11:51:29.412Z,4.8
2019-04-14T11:57:01.977Z,5.3
2019-04-14T12:02:34.493Z,5.3
2019-04-14T12:08:07.145Z,5.5
2019-04-14T12:13:39.775Z,5.3
2019-04-14T12:19:12.391Z,5
2019-04-14T12:24:44.808Z,5.1
2019-04-14T12:30:18.029Z,5.7
2019-04-14T12:35:49.766Z,5.3
2019-04-14T12:41:22.283Z,5.3
2019-04-14T12:46:54.742Z,5.1
2019-04-14T12:52:27.153Z,4.8
2019-04-14T12:57:59.552Z,4.8
2019-04-14T13:03:31.922Z,4.6
2019-04-14T13:09:04.303Z,5.1
2019-04-14T13:14:36.665Z,5.2
2019-04-14T13:20:09.081Z,5.3
2019-04-14T13:25:41.653Z,5.2
2019-04-14T13:36:46.942Z,5.4
2019-04-14T13:42:19.463Z,5.7
2019-04-14T13:47:52.112Z,5.7
2019-04-14T13:53:24.836Z,5.5
2019-04-14T13:58:57.487Z,5.6
2019-04-14T14:04:30.082Z,5.4
2019-04-14T14:10:02.697Z,5.5
2019-04-14T14:15:35.136Z,5.6
2019-04-14T14:21:07.665Z,5.5
2019-04-14T14:26:40.088Z,5.4
2019-04-14T14:32:12.519Z,5.3
2019-04-14T14:37:44.918Z,5.3
2019-04-14T14:43:17.454Z,5
2019-04-14T14:48:49.715Z,5.4
2019-04-14T14:54:22.132Z,5.5
2019-04-14T14:59:54.619Z,5.7
2019-04-14T15:05:27.125Z,6
2019-04-14T15:10:59.765Z,5.7
2019-04-14T15:16:32.391Z,5.9
2019-04-14T15:22:04.984Z,5.5
2019-04-14T15:27:37.494Z,5.8
2019-04-14T15:33:10.056Z,5.3
2019-04-14T15:38:42.645Z,5.7
2019-04-14T15:44:15.099Z,5.1
2019-04-14T15:49:47.505Z,5.6
2019-04-14T15:55:19.960Z,5.5
2019-04-14T16:00:52.470Z,5.3
2019-04-14T16:06:24.808Z,5.4
2019-04-14T16:11:57.125Z,5.3
2019-04-14T16:17:29.479Z,5.1
2019-04-14T16:23:01.729Z,4.9
2019-04-14T16:28:33.953Z,4.8
2019-04-14T16:34:06.113Z,4.8
2019-04-14T16:39:38.326Z,4.8
2019-04-14T16:45:10.436Z,4.8
2019-04-14T16:50:42.448Z,4.7
2019-04-14T16:56:14.505Z,4.8
2019-04-14T17:01:46.612Z,4.6
2019-04-14T17:07:18.632Z,4.6
2019-04-14T17:12:51.813Z,4.6
2019-04-14T17:18:22.688Z,4.6
2019-04-14T17:23:54.692Z,4.6
2019-04-14T17:29:26.508Z,4.6
2019-04-14T17:34:58.484Z,4.5
2019-04-14T17:40:32.756Z,4.6
2019-04-14T17:46:02.518Z,4.5
2019-04-14T17:51:34.494Z,4.5
2019-04-14T17:57:06.490Z,4.5
2019-04-14T18:02:38.471Z,4.5
2019-04-14T18:08:10.168Z,4.4
2019-04-14T18:13:41.657Z,4.5
2019-04-14T18:19:13.475Z,4.4
2019-04-14T18:24:44.136Z,4.4
2019-04-14T18:30:16.133Z,4.3
2019-04-14T18:35:48.061Z,4.2
2019-04-14T18:41:20.018Z,4.1
2019-04-14T18:46:52.037Z,4.1
2019-04-14T18:52:24.092Z,4
2019-04-14T18:57:56.394Z,3.9
2019-04-14T19:03:27.879Z,3.9
2019-04-14T19:08:59.826Z,3.9
2019-04-14T19:14:31.815Z,3.9
2019-04-14T19:20:03.668Z,3.9
2019-04-14T19:25:36.442Z,3.9
2019-04-14T19:31:07.507Z,3.9
2019-04-14T19:36:39.426Z,3.9
2019-04-14T19:42:11.378Z,3.8
2019-04-14T19:47:43.360Z,3.8
2019-04-14T19:53:15.266Z,3.9
2019-04-14T19:58:47.177Z,3.9
2019-04-14T20:04:19.103Z,3.9
2019-04-14T20:09:51.001Z,3.9
2019-04-14T20:15:22.961Z,3.9
2019-04-14T20:20:54.767Z,3.8
2019-04-14T20:26:26.710Z,3.8
2019-04-14T20:31:58.604Z,3.7
2019-04-14T20:37:30.544Z,3.5
2019-04-14T20:43:02.541Z,3.5
2019-04-14T20:48:34.372Z,3.4
2019-04-14T20:54:06.366Z,3.4
2019-04-14T20:59:38.217Z,3.3
2019-04-14T21:05:10.159Z,3.3
2019-04-14T21:10:42.122Z,3.3
2019-04-14T21:16:13.852Z,3.3
2019-04-14T21:21:45.804Z,3.3
2019-04-14T21:27:17.637Z,3.3
2019-04-14T21:32:49.520Z,3.3
2019-04-14T21:38:21.438Z,3.2
2019-04-14T21:43:53.279Z,3.3
2019-04-14T21:49:25.068Z,3.3
2019-04-14T21:54:56.959Z,3.3
2019-04-14T22:00:28.855Z,3.2
2019-04-14T22:06:00.700Z,3.3
2019-04-14T22:11:32.551Z,3.2
2019-04-14T22:17:04.339Z,3.1
2019-04-14T22:22:36.010Z,3.2
2019-04-14T22:28:07.271Z,3.4
2019-04-14T22:33:38.661Z,3.3
2019-04-14T22:39:10.374Z,3.3
2019-04-14T22:44:41.970Z,3.3
2019-04-14T22:50:12.930Z,3.3
2019-04-14T22:55:43.816Z,3.3
2019-04-14T23:01:14.813Z,3.3
2019-04-14T23:06:45.696Z,3.3
2019-04-14T23:12:16.699Z,3.2
2019-04-14T23:17:47.649Z,3.1
2019-04-14T23:23:19.121Z,3
2019-04-14T23:28:50.906Z,2.9
2019-04-14T23:34:22.721Z,3
2019-04-14T23:39:53.993Z,3
2019-04-14T23:45:25.466Z,3.1
2019-04-14T23:50:57.237Z,2.9
2019-04-14T23:56:28.807Z,2.6
